Accueil
METAR-TAF:

METAR-TAF

Aéroports :

Aéroport de Castellón-Costa Azahar

Castellón de la Plana, Espagne

latitude: 40-12-35N, longitude: 0-04-11E, altitude: 360 m

Observation

Le bulletin a été fait il y a 41 minutes, à 12:30 UTC
Vent 7 kt de nord-ouest, variant entre ouest et nord/nord-est
Température 15°C
Humidité 41%
Pression 1016 hPa
Visibilité 10 km ou plus

METAR: LECH 141230Z AUTO 32007KT 270V020 9999 NCD 15/02 Q1016

Heure: 14:11 (13:11 UTC)


TAF: absent

Observations et prévisions météorologiques de plus de 4000 aéroports (messages METAR et TAF).

Les stations disponibles sont représentées par des disques jaunes et rouges sur la carte.

Passer la souris dessus pour voir le nom de la station.

Cliquer dessus pour voir les observations et prévisions météorologiques.

Pour changer de carte: cliquez sur les boutons verts avec une croix noire pour zoomer, sur le bouton vert avec un tiret pour effectuer un zoom arrière, ou sur les flèches vertes pour les cartes adjacentes.


METAR-TAF: